ADDS METAR Data INFO
IDs: Format: Raw Decoded Include TAF

Data at: 1528 UTC 18 Jun 2018

KCDH 181515Z AUTO 17008KT 5SM HZ FEW021 30/22 A3009 RMK AO2
KCDH 181455Z AUTO 14009KT 5SM HZ FEW021 30/22 A3009 RMK AO2
KCDH 181435Z AUTO 16008G13KT 120V190 5SM HZ CLR 29/21 A3009 RMK AO2
KCDH 181415Z AUTO VRB06G13KT 6SM HZ FEW022 SCT028 29/21 A3009 RMK AO2
KCDH 181355Z AUTO 14008KT 5SM HZ SCT023 SCT027 28/20 A3009 RMK AO2
KCDH 181335Z AUTO 16006KT 6SM HZ FEW025 27/20 A3009 RMK AO2
KCDH 181315Z AUTO VRB03KT 6SM HZ FEW022 27/20 A3008 RMK AO2
KCDH 181255Z AUTO 00000KT 6SM HZ CLR 26/20 A3008 RMK AO2
KCDH 181235Z AUTO 00000KT 7SM CLR 25/20 A3008 RMK AO2
KCDH 181215Z AUTO 00000KT 5SM HZ SCT027 24/20 A3007 RMK AO2
KCDH 181155Z AUTO 00000KT 5SM HZ SCT027 23/20 A3007 RMK AO2
KCDH 181135Z AUTO 00000KT 5SM HZ CLR 22/20 A3007 RMK AO2
KCDH 181115Z AUTO 00000KT 6SM HZ SCT039 SCT045 22/20 A3006 RMK AO2
KCDH 181055Z AUTO 00000KT 7SM BKN038 OVC047 22/20 A3006 RMK AO2
KCDH 181035Z AUTO 00000KT 7SM SCT031 OVC038 22/20 A3006 RMK AO2
KCDH 181015Z AUTO 00000KT 7SM BKN031 OVC038 22/20 A3005 RMK AO2
KCDH 180955Z AUTO 00000KT 7SM BKN034 OVC040 22/20 A3005 RMK AO2
KCDH 180935Z AUTO 00000KT 7SM BKN034 BKN040 23/20 A3004 RMK AO2
KCDH 180915Z AUTO 00000KT 7SM BKN037 BKN044 23/20 A3004 RMK AO2
KCDH 180855Z AUTO 00000KT 7SM SCT039 SCT045 23/20 A3004 RMK AO2
KCDH 180835Z AUTO 00000KT 7SM FEW028 SCT034 SCT041 24/20 A3003 RMK AO2
KCDH 180815Z AUTO 17003KT 8SM FEW028 SCT033 SCT041 24/20 A3004 RMK AO2
KCDH 180755Z AUTO 16004KT 7SM SCT028 SCT033 SCT039 24/20 A3004 RMK AO2
KCDH 180735Z AUTO 17006KT 7SM FEW029 SCT040 25/20 A3004 RMK AO2
KCDH 180715Z AUTO 16006KT 7SM CLR 25/20 A3004 RMK AO2
KCDH 180655Z AUTO 17005KT 7SM CLR 25/20 A3005 RMK AO2
KCDH 180635Z AUTO 16005KT 7SM CLR 25/21 A3005 RMK AO2
KCDH 180615Z AUTO 00000KT 7SM FEW043 FEW055 25/21 A3005 RMK AO2
KCDH 180555Z AUTO 16004KT 8SM FEW048 FEW055 26/21 A3006 RMK AO2
KCDH 180535Z AUTO 16003KT 7SM FEW038 SCT050 SCT055 26/21 A3006 RMK AO2
KCDH 180515Z AUTO 15005KT 8SM FEW038 FEW044 BKN055 26/21 A3006 RMK AO2
KCDH 180455Z AUTO 15005KT 7SM FEW043 BKN050 OVC055 27/21 A3006 RMK AO2
KCDH 180435Z AUTO 15004KT 8SM BKN045 BKN050 27/21 A3006 RMK AO2
KCDH 180415Z AUTO 00000KT 9SM FEW044 27/21 A3005 RMK AO2
KCDH 180355Z AUTO 00000KT 8SM FEW040 FEW048 27/21 A3005 RMK AO2
KCDH 180335Z AUTO 15005KT 8SM FEW046 FEW050 28/21 A3004 RMK AO2
KCDH 180315Z AUTO 15005KT 9SM FEW047 28/21 A3003 RMK AO2
KCDH 180255Z AUTO 14006KT 9SM FEW050 SCT060 28/21 A3002 RMK AO2
KCDH 180235Z AUTO 13008KT 8SM FEW050 OVC060 29/22 A3002 RMK AO2
KCDH 180215Z AUTO 13006KT 8SM SCT055 29/22 A3001 RMK AO2
KCDH 180155Z AUTO 13004KT 8SM CLR 29/22 A3000 RMK AO2
KCDH 180135Z AUTO 13005KT 8SM CLR 30/22 A3000 RMK AO2
KCDH 180115Z AUTO VRB04KT 7SM CLR 31/21 A2999 RMK AO2
KCDH 180055Z AUTO VRB04G10KT 7SM CLR 31/21 A2998 RMK AO2
KCDH 180035Z AUTO 13007KT 7SM CLR 32/21 A2998 RMK AO2
KCDH 180015Z AUTO 14007KT 8SM CLR 33/21 A2998 RMK AO2
KCDH 172355Z AUTO 15007KT 8SM CLR 33/21 A2998 RMK AO2
KCDH 172335Z AUTO 14008KT 8SM FEW042 SCT110 33/21 A2998 RMK AO2
KCDH 172315Z AUTO 13005G10KT 8SM FEW110 34/21 A2998 RMK AO2
KCDH 172255Z AUTO VRB04G10KT 8SM SCT110 34/21 A2998 RMK AO2
KCDH 172235Z AUTO 13007KT 8SM SCT100 33/20 A2999 RMK AO2
KCDH 172215Z AUTO 13007KT 100V180 8SM FEW046 BKN095 35/21 A2999 RMK AO2
KCDH 172155Z AUTO 14011KT 7SM FEW046 SCT090 BKN110 35/20 A2999 RMK AO2
KCDH 172135Z AUTO 13010G16KT 080V150 8SM FEW100 35/20 A3000 RMK AO2
KCDH 172115Z AUTO 15011G19KT 9SM CLR 36/19 A3000 RMK AO2
KCDH 172055Z AUTO 15012KT 9SM FEW049 35/19 A3000 RMK AO2
KCDH 172035Z AUTO 14009KT 8SM FEW049 36/19 A3000 RMK AO2
KCDH 172015Z AUTO VRB05G14KT 8SM FEW049 FEW055 36/19 A3000 RMK AO2
KCDH 171955Z AUTO 14009G19KT 8SM FEW049 FEW055 36/18 A3000 RMK AO2
KCDH 171935Z AUTO 11007G16KT 9SM FEW046 35/19 A3001 RMK AO2
KCDH 171915Z AUTO 12008G16KT 050V160 8SM FEW047 FEW055 35/20 A3001 RMK AO2
KCDH 171855Z AUTO 14008G16KT 9SM SCT045 SCT060 35/19 A3002 RMK AO2
KCDH 171835Z AUTO 16010KT 9SM BKN045 BKN050 BKN060 34/20 A3003 RMK AO2
KCDH 171815Z AUTO 11007G14KT 060V140 8SM SCT043 BKN050 33/20 A3004 RMK AO2
KCDH 171755Z AUTO 15008G17KT 100V170 7SM FEW050 FEW065 34/19 A3004 RMK AO2
KCDH 171735Z AUTO 13010G16KT 100V160 8SM SCT042 34/20 A3004 RMK AO2
KCDH 171715Z AUTO 14008KT 9SM BKN041 BKN048 32/20 A3004 RMK AO2
KCDH 171655Z AUTO 15009KT 7SM SCT038 SCT046 33/20 A3005 RMK AO2
KCDH 171635Z AUTO 12007KT 080V150 7SM FEW035 33/20 A3005 RMK AO2
KCDH 171615Z AUTO VRB04G12KT 8SM FEW034 33/20 A3005 RMK AO2
KCDH 171555Z AUTO VRB05G10KT 7SM FEW031 32/21 A3006 RMK AO2
KCDH 171535Z AUTO VRB05G11KT 8SM FEW026 31/20 A3005 RMK AO2
KCDH 171515Z AUTO 15007G12KT 7SM FEW026 31/21 A3005 RMK AO2
KCDH 171455Z AUTO 18005G11KT 7SM CLR 30/21 A3005 RMK AO2
KCDH 171435Z AUTO 15007KT 7SM CLR 30/21 A3005 RMK AO2
KCDH 171415Z AUTO 16006KT 8SM CLR 29/21 A3006 RMK AO2
KCDH 171355Z AUTO VRB04KT 8SM CLR 29/21 A3005 RMK AO2
KCDH 171335Z AUTO VRB04KT 8SM CLR 28/21 A3005 RMK AO2
KCDH 171315Z AUTO VRB04KT 8SM CLR 27/21 A3005 RMK AO2
KCDH 171255Z AUTO 14003KT 7SM CLR 27/21 A3004 RMK AO2
KCDH 171235Z AUTO 00000KT 8SM CLR 26/21 A3004 RMK AO2
KCDH 171215Z AUTO 00000KT 7SM CLR 25/21 A3003 RMK AO2
KCDH 171155Z AUTO 00000KT 6SM HZ SCT090 24/21 A3003 RMK AO2
KCDH 171135Z AUTO 00000KT 4SM HZ SCT090 23/21 A3002 RMK AO2
KCDH 171115Z AUTO 00000KT 7SM CLR 23/21 A3002 RMK AO2
KCDH 171055Z AUTO 00000KT 7SM CLR 23/21 A3001 RMK AO2
KCDH 171035Z AUTO 00000KT 8SM CLR 23/21 A3000 RMK AO2
KCDH 171015Z AUTO 00000KT 9SM CLR 24/21 A2999 RMK AO2
KCDH 170955Z AUTO 00000KT 9SM CLR 24/21 A2999 RMK AO2
KCDH 170935Z AUTO 00000KT 9SM CLR 24/21 A2999 RMK AO2
KCDH 170915Z AUTO 00000KT 9SM CLR 24/21 A2999 RMK AO2
KCDH 170855Z AUTO 00000KT 9SM CLR 24/21 A2998 RMK AO2
KCDH 170835Z AUTO 00000KT 9SM CLR 24/21 A2998 RMK AO2
KCDH 170815Z AUTO 00000KT 10SM CLR 24/21 A2998 RMK AO2
KCDH 170755Z AUTO 14003KT 9SM CLR 25/21 A2998 RMK AO2
KCDH 170735Z AUTO 13004KT 10SM CLR 25/21 A2998 RMK AO2
KCDH 170715Z AUTO 00000KT 9SM CLR 25/21 A2998 RMK AO2
KCDH 170655Z AUTO 00000KT 10SM CLR 25/21 A2998 RMK AO2
KCDH 170635Z AUTO 00000KT 9SM CLR 25/21 A2998 RMK AO2
KCDH 170615Z AUTO 00000KT 10SM CLR 26/21 A2997 RMK AO2
KCDH 170555Z AUTO 16004KT 10SM CLR 26/21 A2998 RMK AO2
KCDH 170535Z AUTO 14004KT 10SM CLR 26/21 A2998 RMK AO2
KCDH 170515Z AUTO 16005KT 10SM CLR 27/22 A2998 RMK AO2
KCDH 170455Z AUTO 15003KT 9SM CLR 27/22 A2998 RMK AO2
KCDH 170435Z AUTO 00000KT 10SM CLR 27/22 A2997 RMK AO2
KCDH 170415Z AUTO 00000KT 10SM CLR 27/22 A2997 RMK AO2
KCDH 170355Z AUTO 00000KT 10SM CLR 28/22 A2997 RMK AO2
KCDH 170335Z AUTO 13004KT 10SM CLR 28/22 A2996 RMK AO2